»·PEaware :: UAL1399 KPDX-KSEA

UAL1399 :: KPDX-KSEA

FLIGHT INFORMATION

Flight Status: Arrived
Operator:
United Airlines
More flights by this operator :: More flights under this callsign
Pilot: David C. (16084)
Aircraft: SAAB 340
(SF34)
More flights by this aircraft type
Origin: KPDX Portland Intl
United States
Destination: KSEA Seattle-Tacoma Intl
United States
More flights between these airports :: More routes between these airports
Route: +PTLD1 COUGA KRIEG HAWKZ7
File this flight plan on PilotEdge
Remarks:
Altitude:
(Current/Filed)
16,000ft
Speed:
(Current/Filed)
289kts
Departed: 29-Jan-20 11:25 AM
Arrived: 29-Jan-20 12:07 PM
Distance/Time
Traveled:
112nm/0:42
Distance/Time
To Go:
Arrived

Flight Plot

Page will automatically refresh every two minutes.

Flight plan parsing failed; only flown route is shown


Map Options




Map Legend


Flown Route
Filed Route
Departure Airport
Arrival Airport
Navaid (VOR, NDB)
Fix

Horizontal Profiles

Position Reports

Time Latitude Longitude Heading Altitude Ground
Speed
29-Jan-20 10:53 45.584968 -122.590087 210 27ft 0kts
29-Jan-20 10:54 45.584968 -122.590087 210 27ft 0kts
29-Jan-20 10:55 45.584968 -122.590087 210 27ft 0kts
29-Jan-20 10:56 45.584968 -122.590087 210 27ft 0kts
29-Jan-20 10:57 45.584968 -122.590087 210 27ft 0kts
29-Jan-20 10:58 45.584968 -122.590087 210 27ft 0kts
29-Jan-20 10:59 45.584968 -122.590087 210 27ft 0kts
29-Jan-20 11:00 45.584968 -122.590087 210 27ft 0kts
29-Jan-20 11:01 45.584968 -122.590087 210 27ft 0kts
29-Jan-20 11:02 45.584968 -122.590087 210 27ft 0kts
29-Jan-20 11:03 45.584968 -122.590087 210 27ft 0kts
29-Jan-20 11:04 45.584968 -122.590087 210 27ft 0kts
29-Jan-20 11:05 45.584968 -122.590087 210 27ft 0kts
29-Jan-20 11:06 45.584968 -122.590087 210 27ft 0kts
29-Jan-20 11:07 45.584968 -122.590087 210 27ft 0kts
29-Jan-20 11:08 45.584968 -122.590087 210 27ft 0kts
29-Jan-20 11:09 45.584968 -122.590087 210 27ft 0kts
29-Jan-20 11:10 45.584968 -122.590087 210 27ft 0kts
29-Jan-20 11:11 45.584968 -122.590087 210 27ft 0kts
29-Jan-20 11:12 45.584968 -122.590087 210 27ft 0kts
29-Jan-20 11:13 45.584968 -122.590087 210 27ft 0kts
29-Jan-20 11:14 45.584968 -122.590087 210 27ft 0kts
29-Jan-20 11:15 45.584968 -122.590087 210 27ft 0kts
29-Jan-20 11:16 45.584968 -122.590087 210 27ft 0kts
29-Jan-20 11:17 45.584968 -122.590087 210 27ft 0kts
29-Jan-20 11:18 45.584624 -122.591140 299 27ft 14kts
29-Jan-20 11:19 45.587842 -122.597337 298 27ft 21kts
29-Jan-20 11:20 45.590911 -122.602517 42 27ft 12kts
29-Jan-20 11:21 45.594234 -122.597731 43 27ft 16kts
29-Jan-20 11:22 45.594398 -122.597501 44 27ft 0kts
29-Jan-20 11:23 45.594411 -122.597484 44 27ft 2kts
29-Jan-20 11:24 45.589566 -122.582261 118 33ft 132kts
29-Jan-20 11:25 45.577194 -122.522180 99 2197ft 169kts
29-Jan-20 11:26 45.572216 -122.454618 99 4586ft 176kts
29-Jan-20 11:27 45.569500 -122.382300 99 6520ft 190kts
29-Jan-20 11:28 45.592932 -122.315156 359 7643ft 240kts
29-Jan-20 11:29 45.644029 -122.359157 314 9495ft 211kts
29-Jan-20 11:30 45.693534 -122.397659 321 11374ft 193kts
29-Jan-20 11:31 45.740949 -122.430767 321 12765ft 190kts
29-Jan-20 11:32 45.788690 -122.464118 321 13869ft 192kts
29-Jan-20 11:33 45.835539 -122.496854 320 15169ft 183kts
29-Jan-20 11:34 45.881742 -122.529362 321 15978ft 197kts
29-Jan-20 11:35 45.935088 -122.566837 322 15978ft 225kts
29-Jan-20 11:36 45.992666 -122.607287 323 15965ft 233kts
29-Jan-20 11:37 46.051407 -122.648704 323 15954ft 235kts
29-Jan-20 11:38 46.110850 -122.681492 341 15951ft 252kts
29-Jan-20 11:39 46.179047 -122.694492 340 15954ft 252kts
29-Jan-20 11:40 46.248499 -122.708092 340 15954ft 252kts
29-Jan-20 11:41 46.318438 -122.721857 341 15943ft 252kts
29-Jan-20 11:42 46.390132 -122.724761 347 15931ft 258kts
29-Jan-20 11:43 46.462132 -122.727307 347 15928ft 258kts
29-Jan-20 11:44 46.533949 -122.729890 347 15928ft 258kts
29-Jan-20 11:45 46.605339 -122.732463 347 15928ft 258kts
29-Jan-20 11:46 46.677226 -122.735071 347 15929ft 258kts
29-Jan-20 11:47 46.749203 -122.737683 347 15923ft 258kts
29-Jan-20 11:48 46.819982 -122.698688 33 15179ft 308kts
29-Jan-20 11:49 46.886965 -122.619979 30 14406ft 308kts
29-Jan-20 11:50 46.957668 -122.552375 6 13500ft 294kts
29-Jan-20 11:51 47.035446 -122.519417 8 12231ft 290kts
29-Jan-20 11:52 47.102149 -122.496015 359 11149ft 285kts
29-Jan-20 11:53 47.180558 -122.481985 4 9868ft 288kts
29-Jan-20 11:54 47.259215 -122.469546 3 8780ft 280kts
29-Jan-20 11:55 47.337040 -122.457645 3 7774ft 281kts
29-Jan-20 11:56 47.414612 -122.455290 356 7100ft 270kts
29-Jan-20 11:57 47.487651 -122.455349 356 6208ft 254kts
29-Jan-20 11:58 47.554201 -122.429479 15 5117ft 247kts
29-Jan-20 11:59 47.619966 -122.401674 15 4046ft 240kts
29-Jan-20 12:00 47.652570 -122.343592 119 3270ft 188kts
29-Jan-20 12:01 47.618891 -122.306157 176 2999ft 156kts
29-Jan-20 12:02 47.577134 -122.306783 180 2699ft 154kts
29-Jan-20 12:03 47.538272 -122.307143 179 1952ft 127kts
29-Jan-20 12:04 47.502338 -122.307445 179 1273ft 135kts
29-Jan-20 12:05 47.466469 -122.307778 179 579ft 130kts
29-Jan-20 12:06 47.443954 -122.307835 164 475ft 17kts
29-Jan-20 12:07 47.442894 -122.306382 174 475ft 13kts
29-Jan-20 12:08 47.440038 -122.303189 66 475ft 20kts
29-Jan-20 12:09 47.440573 -122.300078 64 475ft 0kts
29-Jan-20 12:10 47.440573 -122.300078 64 475ft 0kts

Navigation Log

Ident Type
Flight plan parsing failed, navigation log unavailable